Time;durP1;ratioP1;P1;durP2;ratioP2;P2;SDS_P1;SDS_P2;PMS_P1;PMS_P2;Temp;Humidity;BMP_temperature;BMP_pressure;BME280_temperature;BME280_humidity;BME280_pressure;Samples;Min_cycle;Max_cycle;Signal;HPM_P1;HPM_P2
2022/05/01 00:00:09;;;;;;;5.53;4.88;;;;;;;;;;4900997;29;20029;-73
2022/05/01 00:02:35;;;;;;;8.10;4.82;;;;;;;;;;4882887;29;20402;-73
2022/05/01 00:05:01;;;;;;;7.50;5.03;;;;;;;;;;4899926;29;20074;-75
2022/05/01 00:07:28;;;;;;;6.80;4.38;;;;;;;;;;4900904;29;20049;-73
2022/05/01 00:09:54;;;;;;;5.35;4.63;;;;;;;;;;4901316;29;20036;-74
2022/05/01 00:12:22;;;;;;;7.72;4.90;;;;;;;;;;4900179;29;20080;-73
2022/05/01 00:14:48;;;;;;;7.28;4.80;;;;;;;;;;4900951;29;20122;-74
2022/05/01 00:17:14;;;;;;;6.57;4.90;;;;;;;;;;4900235;29;20028;-73
2022/05/01 00:19:40;;;;;;;7.90;4.93;;;;;;;;;;4900755;29;20033;-74
2022/05/01 00:22:06;;;;;;;8.15;4.75;;;;;;;;;;4899809;29;20036;-73
2022/05/01 00:24:32;;;;;;;5.70;4.90;;;;;;;;;;4900551;29;20036;-75
2022/05/01 00:27:00;;;;;;;6.82;5.10;;;;;;;;;;4900490;29;20029;-73
2022/05/01 00:29:26;;;;;;;6.68;5.00;;;;;;;;;;4900147;29;20108;-73
2022/05/01 00:31:54;;;;;;;7.00;5.55;;;;;;;;;;4900556;29;20124;-73
2022/05/01 00:37:07;;;;;;;8.25;5.35;;;;;;;;;;4899986;29;20036;-73
2022/05/01 00:39:34;;;;;;;6.70;5.22;;;;;;;;;;4900324;29;20032;-73
2022/05/01 00:42:00;;;;;;;6.07;5.43;;;;;;;;;;4900848;29;20032;-72
2022/05/01 00:44:28;;;;;;;7.05;5.10;;;;;;;;;;4899955;29;20047;-74
2022/05/01 00:46:54;;;;;;;6.85;5.28;;;;;;;;;;4899542;29;20036;-72
2022/05/01 00:49:20;;;;;;;7.80;5.90;;;;;;;;;;4899214;29;20487;-73
2022/05/01 00:51:52;;;;;;;8.43;5.43;;;;;;;;;;4898504;29;20509;-73
2022/05/01 00:54:20;;;;;;;7.65;5.50;;;;;;;;;;4899731;29;20076;-73
2022/05/01 00:56:47;;;;;;;7.03;5.53;;;;;;;;;;4900134;29;20492;-73
2022/05/01 00:59:14;;;;;;;8.05;5.55;;;;;;;;;;4897849;29;20390;-73
2022/05/01 01:01:42;;;;;;;9.63;5.60;;;;;;;;;;4894959;29;20021;-74
2022/05/01 01:04:09;;;;;;;8.50;5.78;;;;;;;;;;4899145;29;20033;-73
2022/05/01 01:06:35;;;;;;;10.82;6.18;;;;;;;;;;4898144;29;20112;-72
2022/05/01 01:09:01;;;;;;;9.25;7.10;;;;;;;;;;4899422;29;20128;-73
2022/05/01 01:11:27;;;;;;;8.13;6.63;;;;;;;;;;4899543;29;20032;-73
2022/05/01 01:13:56;;;;;;;13.35;7.00;;;;;;;;;;4899725;29;20028;-73
2022/05/01 01:16:22;;;;;;;11.15;6.80;;;;;;;;;;4899208;29;20029;-73
2022/05/01 01:18:48;;;;;;;8.98;7.05;;;;;;;;;;4899649;29;20032;-73
2022/05/01 01:21:14;;;;;;;9.75;7.43;;;;;;;;;;4881959;29;20399;-74
2022/05/01 01:23:41;;;;;;;9.52;7.10;;;;;;;;;;4899252;29;20368;-75
2022/05/01 01:26:07;;;;;;;10.35;8.10;;;;;;;;;;4898954;29;20040;-72
2022/05/01 01:28:38;;;;;;;14.38;11.90;;;;;;;;;;4898737;29;20051;-74
2022/05/01 01:33:53;;;;;;;17.50;13.23;;;;;;;;;;4899390;29;20498;-74
2022/05/01 01:36:23;;;;;;;13.40;11.80;;;;;;;;;;4898847;29;20039;-72
2022/05/01 01:38:49;;;;;;;19.58;14.48;;;;;;;;;;4897528;29;20115;-75
2022/05/01 01:41:18;;;;;;;20.45;13.85;;;;;;;;;;4899343;29;20088;-73
2022/05/01 01:43:45;;;;;;;12.65;10.50;;;;;;;;;;4899382;29;20107;-73
2022/05/01 01:46:11;;;;;;;12.48;10.02;;;;;;;;;;4899088;29;20134;-73
2022/05/01 01:48:37;;;;;;;12.75;10.13;;;;;;;;;;4898496;29;20072;-72
2022/05/01 01:51:06;;;;;;;12.65;9.63;;;;;;;;;;4898489;29;20032;-73
2022/05/01 01:53:33;;;;;;;12.52;10.45;;;;;;;;;;4897968;29;20522;-72
2022/05/01 01:55:59;;;;;;;13.55;9.35;;;;;;;;;;4885058;29;20091;-72
2022/05/01 01:58:25;;;;;;;13.77;8.60;;;;;;;;;;4897288;29;20188;-72
2022/05/01 02:00:51;;;;;;;11.70;7.82;;;;;;;;;;4898360;29;20032;-71
2022/05/01 02:03:20;;;;;;;13.13;9.00;;;;;;;;;;4898489;29;20037;-75
2022/05/01 02:05:46;;;;;;;12.55;9.30;;;;;;;;;;4898290;29;20049;-72
2022/05/01 02:08:13;;;;;;;11.30;8.30;;;;;;;;;;4898582;29;20080;-75
2022/05/01 02:10:39;;;;;;;10.38;8.63;;;;;;;;;;4898699;29;20032;-72
2022/05/01 02:13:08;;;;;;;11.30;8.10;;;;;;;;;;4897410;29;20024;-71
2022/05/01 02:15:37;;;;;;;13.10;9.00;;;;;;;;;;4898830;29;20036;-73
2022/05/01 02:18:04;;;;;;;13.38;9.07;;;;;;;;;;4898094;29;20039;-72
2022/05/01 02:23:20;;;;;;;10.73;8.38;;;;;;;;;;4822378;29;20039;-72
2022/05/01 02:25:46;;;;;;;9.23;7.80;;;;;;;;;;4822557;29;20536;-72
2022/05/01 02:28:12;;;;;;;9.02;7.68;;;;;;;;;;4821788;29;20812;-72
2022/05/01 02:30:39;;;;;;;8.60;6.57;;;;;;;;;;4821777;29;20468;-71
2022/05/01 02:33:06;;;;;;;8.43;6.75;;;;;;;;;;4822215;29;20106;-75
2022/05/01 02:35:35;;;;;;;9.43;7.07;;;;;;;;;;4822040;29;20472;-72
2022/05/01 02:38:04;;;;;;;9.50;7.50;;;;;;;;;;4822328;29;20060;-72
2022/05/01 02:40:30;;;;;;;9.52;6.97;;;;;;;;;;4813252;29;20192;-71
2022/05/01 02:42:59;;;;;;;9.23;6.70;;;;;;;;;;4822090;29;20040;-72
2022/05/01 02:45:28;;;;;;;8.70;7.15;;;;;;;;;;4822257;29;20034;-71
2022/05/01 02:47:54;;;;;;;8.45;6.53;;;;;;;;;;4822136;29;20046;-75
2022/05/01 02:50:21;;;;;;;9.55;6.22;;;;;;;;;;4821332;29;20046;-72
2022/05/01 02:52:48;;;;;;;12.07;6.25;;;;;;;;;;4821568;29;20037;-72
2022/05/01 02:55:14;;;;;;;7.70;5.97;;;;;;;;;;4821447;29;20026;-73
2022/05/01 02:57:41;;;;;;;7.25;5.68;;;;;;;;;;4822308;29;20095;-74
2022/05/01 03:00:16;;;;;;;7.75;5.63;;;;;;;;;;4849222;29;20062;-72
2022/05/01 03:02:42;;;;;;;7.70;5.60;;;;;;;;;;4897436;29;20021;-72
2022/05/01 03:05:09;;;;;;;12.05;5.50;;;;;;;;;;4880399;29;20478;-73
2022/05/01 03:07:35;;;;;;;8.07;5.60;;;;;;;;;;4898225;29;20075;-75
2022/05/01 03:10:01;;;;;;;6.97;5.90;;;;;;;;;;4897845;29;20079;-71
2022/05/01 03:12:27;;;;;;;7.50;5.97;;;;;;;;;;4897653;29;20402;-71
2022/05/01 03:14:53;;;;;;;7.43;5.95;;;;;;;;;;4880538;29;20061;-75
2022/05/01 03:17:19;;;;;;;6.18;5.38;;;;;;;;;;4897460;29;20032;-74
2022/05/01 03:22:34;;;;;;;7.25;5.35;;;;;;;;;;4897469;29;20505;-72
2022/05/01 03:25:00;;;;;;;7.55;5.22;;;;;;;;;;4897831;29;20108;-75
2022/05/01 03:27:26;;;;;;;6.10;5.00;;;;;;;;;;4896576;29;20052;-75
2022/05/01 03:32:37;;;;;;;6.47;5.35;;;;;;;;;;4897750;29;20035;-75
2022/05/01 03:35:03;;;;;;;6.53;5.53;;;;;;;;;;4897244;29;20028;-72
2022/05/01 03:37:29;;;;;;;6.75;5.20;;;;;;;;;;4897360;29;20025;-75
2022/05/01 03:39:56;;;;;;;7.22;5.60;;;;;;;;;;4897084;29;20031;-73
2022/05/01 03:42:22;;;;;;;7.50;5.13;;;;;;;;;;4897574;29;20020;-72
2022/05/01 03:44:48;;;;;;;7.07;5.80;;;;;;;;;;4897337;29;20029;-73
2022/05/01 03:47:14;;;;;;;6.45;4.93;;;;;;;;;;4897021;29;20031;-73
2022/05/01 03:49:40;;;;;;;7.70;5.43;;;;;;;;;;4897448;29;20132;-75
2022/05/01 03:52:09;;;;;;;6.47;5.35;;;;;;;;;;4896986;29;20033;-72
2022/05/01 03:54:35;;;;;;;8.25;5.20;;;;;;;;;;4897545;29;20156;-72
2022/05/01 03:57:02;;;;;;;8.45;5.15;;;;;;;;;;4897320;29;20131;-72
2022/05/01 03:59:29;;;;;;;9.10;5.68;;;;;;;;;;4897056;29;20032;-76
2022/05/01 04:01:56;;;;;;;6.25;5.07;;;;;;;;;;4896684;29;20047;-72
2022/05/01 04:04:22;;;;;;;10.05;5.68;;;;;;;;;;4897623;29;20036;-75
2022/05/01 04:06:48;;;;;;;8.45;5.07;;;;;;;;;;4897168;29;20181;-72
2022/05/01 04:09:14;;;;;;;5.53;4.82;;;;;;;;;;4896992;29;20037;-75
2022/05/01 04:11:40;;;;;;;5.68;5.07;;;;;;;;;;4897288;29;20031;-72
2022/05/01 04:14:06;;;;;;;7.28;5.40;;;;;;;;;;4897015;29;20048;-72
2022/05/01 04:16:32;;;;;;;6.45;5.53;;;;;;;;;;4897142;29;20412;-72
2022/05/01 04:18:58;;;;;;;6.63;5.75;;;;;;;;;;4896971;29;20024;-72
2022/05/01 04:21:24;;;;;;;7.13;5.63;;;;;;;;;;4897427;29;20037;-72
2022/05/01 04:23:53;;;;;;;6.45;5.28;;;;;;;;;;4896832;29;20037;-72
2022/05/01 04:26:19;;;;;;;6.88;5.55;;;;;;;;;;4897191;29;20152;-72
2022/05/01 04:31:30;;;;;;;7.90;5.60;;;;;;;;;;4896715;29;20044;-72
2022/05/01 04:33:59;;;;;;;8.43;6.03;;;;;;;;;;4897174;29;20029;-75
2022/05/01 04:36:25;;;;;;;7.13;5.97;;;;;;;;;;4898817;29;20036;-72
2022/05/01 04:38:51;;;;;;;9.10;6.10;;;;;;;;;;4900947;29;20025;-73
2022/05/01 04:41:18;;;;;;;7.30;5.70;;;;;;;;;;4900090;29;20033;-73
2022/05/01 04:43:44;;;;;;;7.07;5.65;;;;;;;;;;4900422;29;20032;-71
2022/05/01 04:46:10;;;;;;;7.78;5.32;;;;;;;;;;4899466;29;20479;-72
2022/05/01 04:48:36;;;;;;;7.13;5.53;;;;;;;;;;4900428;29;20025;-75
2022/05/01 04:51:02;;;;;;;8.57;5.57;;;;;;;;;;4900193;29;20545;-73
2022/05/01 04:53:29;;;;;;;7.82;5.00;;;;;;;;;;4900551;29;20056;-72
2022/05/01 04:57:04;;;;;;;11.52;5.10;;;;;;;;;;4900037;29;20414;-73
2022/05/01 04:58:41;;;;;;;7.45;5.40;;;;;;;;;;4881384;29;20072;-73
2022/05/01 05:01:07;;;;;;;6.25;4.88;;;;;;;;;;4881603;29;20025;-72
2022/05/01 05:03:33;;;;;;;7.70;4.90;;;;;;;;;;4899059;29;20039;-72
2022/05/01 05:06:01;;;;;;;5.50;4.03;;;;;;;;;;4900056;29;20136;-73
2022/05/01 05:11:11;;;;;;;5.18;3.90;;;;;;;;;;4899868;29;20063;-72
2022/05/01 05:13:37;;;;;;;7.90;4.63;;;;;;;;;;4899746;29;20036;-72
2022/05/01 05:16:08;;;;;;;6.80;3.90;;;;;;;;;;4900080;29;20152;-72
2022/05/01 05:18:36;;;;;;;10.90;4.88;;;;;;;;;;4900143;29;20032;-74
2022/05/01 05:21:02;;;;;;;9.68;4.80;;;;;;;;;;4899890;29;20101;-72
2022/05/01 05:23:28;;;;;;;6.25;4.65;;;;;;;;;;4900153;29;20024;-73
2022/05/01 05:25:56;;;;;;;4.82;4.20;;;;;;;;;;4899756;29;20111;-73
2022/05/01 05:28:23;;;;;;;5.10;4.00;;;;;;;;;;4899907;29;20031;-72
2022/05/01 05:30:49;;;;;;;7.30;3.95;;;;;;;;;;4897250;29;20052;-75
2022/05/01 05:33:18;;;;;;;5.35;3.80;;;;;;;;;;4895261;29;20036;-72
2022/05/01 05:35:44;;;;;;;5.50;3.95;;;;;;;;;;4897370;29;20036;-75
2022/05/01 05:38:13;;;;;;;4.75;3.58;;;;;;;;;;4899365;29;20032;-73
2022/05/01 05:40:39;;;;;;;6.10;3.85;;;;;;;;;;4892246;29;20032;-75
2022/05/01 05:43:05;;;;;;;7.97;4.03;;;;;;;;;;4899448;29;20466;-75
2022/05/01 05:45:31;;;;;;;7.15;4.03;;;;;;;;;;4898297;29;20025;-74
2022/05/01 05:47:57;;;;;;;9.35;3.90;;;;;;;;;;4897812;29;20025;-72
2022/05/01 05:50:27;;;;;;;5.15;3.65;;;;;;;;;;4898993;29;20059;-71
2022/05/01 05:52:53;;;;;;;4.97;3.60;;;;;;;;;;4888717;29;20025;-69
2022/05/01 05:55:19;;;;;;;8.52;3.85;;;;;;;;;;4897012;29;20406;-70
2022/05/01 05:57:45;;;;;;;5.75;3.42;;;;;;;;;;4893985;29;20383;-73
2022/05/01 06:00:11;;;;;;;8.07;3.90;;;;;;;;;;4892619;29;20491;-69
2022/05/01 06:02:37;;;;;;;4.55;3.67;;;;;;;;;;4892854;29;20394;-70
2022/05/01 06:05:04;;;;;;;5.65;3.92;;;;;;;;;;4898117;29;20513;-70
2022/05/01 06:07:30;;;;;;;5.20;3.95;;;;;;;;;;4896886;29;20056;-69
2022/05/01 06:09:56;;;;;;;8.35;3.97;;;;;;;;;;4897644;29;20055;-70
2022/05/01 06:12:22;;;;;;;7.00;3.60;;;;;;;;;;4895307;29;20402;-71
2022/05/01 06:14:49;;;;;;;5.50;4.05;;;;;;;;;;4896483;29;20103;-67
2022/05/01 06:17:15;;;;;;;4.15;3.40;;;;;;;;;;4894915;29;20535;-66
2022/05/01 06:19:41;;;;;;;5.82;3.88;;;;;;;;;;4896688;29;20490;-69
2022/05/01 06:22:07;;;;;;;4.53;3.63;;;;;;;;;;4897728;29;20029;-67
2022/05/01 06:24:33;;;;;;;4.82;3.80;;;;;;;;;;4896613;29;20440;-68
2022/05/01 06:26:59;;;;;;;5.03;3.90;;;;;;;;;;4896743;29;20455;-67
2022/05/01 06:29:25;;;;;;;10.20;3.63;;;;;;;;;;4896186;29;20037;-71
2022/05/01 06:31:52;;;;;;;4.78;3.60;;;;;;;;;;4897456;29;20410;-70
2022/05/01 06:34:18;;;;;;;8.93;3.70;;;;;;;;;;4899029;29;20547;-68
2022/05/01 06:36:44;;;;;;;4.20;3.30;;;;;;;;;;4898059;29;20502;-68
2022/05/01 06:39:11;;;;;;;5.53;3.70;;;;;;;;;;4897851;29;20036;-68
2022/05/01 06:41:38;;;;;;;4.20;3.42;;;;;;;;;;4890594;29;20056;-67
2022/05/01 06:44:04;;;;;;;6.45;3.58;;;;;;;;;;4894363;29;20044;-68
2022/05/01 06:46:30;;;;;;;7.15;3.40;;;;;;;;;;4897529;29;20031;-67
2022/05/01 06:48:56;;;;;;;5.53;3.40;;;;;;;;;;4896799;29;20040;-73
2022/05/01 06:51:22;;;;;;;4.88;3.42;;;;;;;;;;4893917;29;20039;-69
2022/05/01 06:53:48;;;;;;;3.95;3.30;;;;;;;;;;4894509;29;20039;-71
2022/05/01 06:56:14;;;;;;;7.15;3.33;;;;;;;;;;4898508;29;20088;-68
2022/05/01 06:58:40;;;;;;;9.15;3.47;;;;;;;;;;4896041;29;20025;-75
2022/05/01 07:01:07;;;;;;;9.75;4.32;;;;;;;;;;4895855;29;20029;-68
2022/05/01 07:03:34;;;;;;;6.90;3.97;;;;;;;;;;4896402;29;20025;-70
2022/05/01 07:06:06;;;;;;;7.60;3.60;;;;;;;;;;4900764;29;20047;-75
2022/05/01 07:08:32;;;;;;;9.57;4.25;;;;;;;;;;4898233;29;20040;-77
2022/05/01 07:10:59;;;;;;;5.30;3.67;;;;;;;;;;4900647;29;20051;-75
2022/05/01 07:13:26;;;;;;;5.78;3.33;;;;;;;;;;4912095;29;20037;-79
2022/05/01 07:15:52;;;;;;;10.48;5.00;;;;;;;;;;4892570;29;20032;-77
2022/05/01 07:18:18;;;;;;;5.95;3.67;;;;;;;;;;4882876;29;20040;-75
2022/05/01 07:20:47;;;;;;;6.00;3.88;;;;;;;;;;4887585;29;20039;-73
2022/05/01 07:23:13;;;;;;;5.22;3.10;;;;;;;;;;4895249;29;20547;-74
2022/05/01 07:25:39;;;;;;;5.13;3.47;;;;;;;;;;4896508;29;20036;-74
2022/05/01 07:28:07;;;;;;;7.30;3.33;;;;;;;;;;4902527;29;20021;-68
2022/05/01 07:30:33;;;;;;;5.35;3.45;;;;;;;;;;4896529;29;20040;-74
2022/05/01 07:32:59;;;;;;;10.88;3.55;;;;;;;;;;4904289;29;20031;-77
2022/05/01 07:35:26;;;;;;;4.82;3.53;;;;;;;;;;4897154;29;20039;-77
2022/05/01 07:37:56;;;;;;;8.75;3.92;;;;;;;;;;4892705;29;20025;-77
2022/05/01 07:40:24;;;;;;;4.78;3.83;;;;;;;;;;4902988;29;20048;-75
2022/05/01 07:42:53;;;;;;;5.45;3.50;;;;;;;;;;4900191;29;20080;-73
2022/05/01 07:45:19;;;;;;;7.72;3.70;;;;;;;;;;4897340;29;20029;-74
2022/05/01 07:47:45;;;;;;;3.55;3.00;;;;;;;;;;4904247;29;20044;-76
2022/05/01 07:50:12;;;;;;;6.10;3.80;;;;;;;;;;4895090;29;20036;-75
2022/05/01 07:52:39;;;;;;;4.43;3.30;;;;;;;;;;4899821;29;20559;-74
2022/05/01 07:55:06;;;;;;;6.97;3.30;;;;;;;;;;4905067;29;20172;-75
2022/05/01 07:57:32;;;;;;;8.52;3.90;;;;;;;;;;4895867;29;20025;-74
2022/05/01 08:00:00;;;;;;;7.30;3.65;;;;;;;;;;4895508;29;20488;-69
2022/05/01 08:02:34;;;;;;;8.95;3.55;;;;;;;;;;4893509;29;20477;-70
2022/05/01 08:05:00;;;;;;;;;;;;;;;;;;4894911;29;20032;-69
2022/05/01 08:07:26;;;;;;;7.22;4.10;;;;;;;;;;4893529;29;19924;-70
2022/05/01 08:09:52;;;;;;;5.50;3.70;;;;;;;;;;4897489;29;20036;-70
2022/05/01 08:12:18;;;;;;;8.95;4.03;;;;;;;;;;4900575;29;20028;-71
2022/05/01 08:14:44;;;;;;;13.80;4.30;;;;;;;;;;4899118;29;20048;-74
2022/05/01 08:17:10;;;;;;;6.63;4.53;;;;;;;;;;4897996;29;20075;-74
2022/05/01 08:22:21;;;;;;;9.27;5.72;;;;;;;;;;4898383;29;20044;-75
2022/05/01 08:24:47;;;;;;;7.88;5.15;;;;;;;;;;4895142;29;20035;-73
2022/05/01 08:27:13;;;;;;;8.10;5.90;;;;;;;;;;4896438;29;20024;-73
2022/05/01 08:29:39;;;;;;;14.15;8.02;;;;;;;;;;4888928;29;20703;-71
2022/05/01 08:32:06;;;;;;;8.50;5.28;;;;;;;;;;4900569;29;20024;-72
2022/05/01 08:34:33;;;;;;;7.53;4.85;;;;;;;;;;4902142;29;20039;-73
2022/05/01 08:36:59;;;;;;;8.88;5.97;;;;;;;;;;4895539;29;20021;-72
2022/05/01 08:39:25;;;;;;;8.10;5.78;;;;;;;;;;4901136;29;20043;-74
2022/05/01 08:41:54;;;;;;;7.38;4.70;;;;;;;;;;4900621;29;20029;-74
2022/05/01 08:44:24;;;;;;;8.13;4.40;;;;;;;;;;4899500;29;20029;-75
2022/05/01 08:46:51;;;;;;;21.23;5.10;;;;;;;;;;4900477;29;20025;-75
2022/05/01 08:49:18;;;;;;;7.25;5.10;;;;;;;;;;4903011;29;20040;-75
2022/05/01 08:51:44;;;;;;;6.32;4.95;;;;;;;;;;4901457;29;20373;-75
2022/05/01 08:54:11;;;;;;;6.30;4.35;;;;;;;;;;4899914;29;20029;-73
2022/05/01 08:56:38;;;;;;;6.43;4.53;;;;;;;;;;4899264;29;20044;-75
2022/05/01 08:59:05;;;;;;;6.88;4.80;;;;;;;;;;4898618;29;20395;-69
2022/05/01 09:02:00;;;;;;;7.30;4.63;;;;;;;;;;4896914;29;20036;-75
2022/05/01 09:04:28;;;;;;;9.73;4.82;;;;;;;;;;4859564;29;20052;-73
2022/05/01 09:06:54;;;;;;;6.65;4.47;;;;;;;;;;4859606;29;20548;-75
2022/05/01 09:09:21;;;;;;;7.95;4.47;;;;;;;;;;4845560;29;20117;-73
2022/05/01 09:14:37;;;;;;;11.57;6.28;;;;;;;;;;4864894;29;20036;-73
2022/05/01 09:17:13;;;;;;;13.77;7.97;;;;;;;;;;4860077;29;20029;-74
2022/05/01 09:19:40;;;;;;;9.73;4.25;;;;;;;;;;4858213;29;20045;-73
2022/05/01 09:22:06;;;;;;;26.20;18.10;;;;;;;;;;4860917;29;20507;-73
2022/05/01 09:24:32;;;;;;;11.27;7.05;;;;;;;;;;4860842;29;20038;-71
2022/05/01 09:26:59;;;;;;;11.13;6.88;;;;;;;;;;4837674;29;20137;-71
2022/05/01 09:29:26;;;;;;;23.13;11.52;;;;;;;;;;4856600;29;20045;-72
2022/05/01 09:31:53;;;;;;;49.05;39.90;;;;;;;;;;4858494;29;20033;-70
2022/05/01 09:34:20;;;;;;;13.73;9.07;;;;;;;;;;4860974;29;20030;-68
2022/05/01 09:36:46;;;;;;;9.38;5.15;;;;;;;;;;4880969;29;20388;-68
2022/05/01 09:39:17;;;;;;;20.35;15.70;;;;;;;;;;4881200;29;20029;-69
2022/05/01 09:41:43;;;;;;;9.60;6.65;;;;;;;;;;4882643;29;20025;-74
2022/05/01 09:44:13;;;;;;;15.13;9.43;;;;;;;;;;4887047;29;20025;-74
2022/05/01 09:46:39;;;;;;;13.27;10.07;;;;;;;;;;4881341;29;20032;-69
2022/05/01 09:49:10;;;;;;;11.60;6.40;;;;;;;;;;4877469;29;20031;-73
2022/05/01 09:51:46;;;;;;;72.20;46.47;;;;;;;;;;4878108;29;20077;-69
2022/05/01 09:54:21;;;;;;;15.23;10.50;;;;;;;;;;4878316;29;20029;-70
2022/05/01 09:56:48;;;;;;;204.82;165.05;;;;;;;;;;4878383;29;20036;-73
2022/05/01 09:59:15;;;;;;;20.05;16.15;;;;;;;;;;4879168;29;20029;-69
2022/05/01 10:01:54;;;;;;;9.50;6.13;;;;;;;;;;4878646;29;20104;-71
2022/05/01 10:04:22;;;;;;;63.70;47.42;;;;;;;;;;4878215;29;20033;-70
2022/05/01 10:06:48;;;;;;;64.57;47.70;;;;;;;;;;4889091;29;20047;-70
2022/05/01 10:09:15;;;;;;;34.42;23.35;;;;;;;;;;4895937;29;20054;-70
2022/05/01 10:11:42;;;;;;;54.53;37.75;;;;;;;;;;4896513;29;20060;-71
2022/05/01 10:14:08;;;;;;;41.60;31.73;;;;;;;;;;4897752;29;20024;-70
2022/05/01 10:16:34;;;;;;;21.65;12.90;;;;;;;;;;4895713;29;20032;-70
2022/05/01 10:19:00;;;;;;;18.65;13.05;;;;;;;;;;4897418;29;20028;-71
2022/05/01 10:21:28;;;;;;;20.38;12.25;;;;;;;;;;4897383;29;20483;-70
2022/05/01 10:23:55;;;;;;;8.82;6.30;;;;;;;;;;4895893;29;20056;-70
2022/05/01 10:26:25;;;;;;;26.63;19.48;;;;;;;;;;4896481;29;20040;-69
2022/05/01 10:28:53;;;;;;;12.10;7.47;;;;;;;;;;4893528;29;20024;-71
2022/05/01 10:34:07;;;;;;;11.73;8.18;;;;;;;;;;4895575;29;20403;-70
2022/05/01 10:36:33;;;;;;;9.00;7.10;;;;;;;;;;4894240;29;20510;-72
2022/05/01 10:39:02;;;;;;;10.80;6.97;;;;;;;;;;4893849;29;20025;-70
2022/05/01 10:41:29;;;;;;;13.80;8.68;;;;;;;;;;4897136;29;20029;-70
2022/05/01 10:43:56;;;;;;;11.52;5.85;;;;;;;;;;4897363;29;20028;-72
2022/05/01 10:46:22;;;;;;;12.65;9.25;;;;;;;;;;4896727;29;20156;-70
2022/05/01 10:48:48;;;;;;;11.80;6.63;;;;;;;;;;4897094;29;20072;-69
2022/05/01 10:51:38;;;;;;;18.58;11.85;;;;;;;;;;4896625;29;20032;-69
2022/05/01 10:54:10;;;;;;;13.98;8.48;;;;;;;;;;4896839;29;20356;-70
2022/05/01 10:56:37;;;;;;;10.82;6.63;;;;;;;;;;4888951;29;20096;-69
2022/05/01 10:59:22;;;;;;;11.07;6.43;;;;;;;;;;4896914;29;20037;-71
2022/05/01 11:01:58;;;;;;;9.00;5.57;;;;;;;;;;4891158;29;20035;-69
2022/05/01 11:04:24;;;;;;;7.20;4.45;;;;;;;;;;4896191;29;20073;-69
2022/05/01 11:06:54;;;;;;;8.60;5.03;;;;;;;;;;4827545;29;2048927;-75
2022/05/01 11:09:20;;;;;;;7.15;4.85;;;;;;;;;;4896546;29;20411;-71
2022/05/01 11:11:47;;;;;;;9.07;6.03;;;;;;;;;;4896638;29;20040;-69
2022/05/01 11:14:14;;;;;;;9.18;5.65;;;;;;;;;;4896886;29;20060;-75
2022/05/01 11:16:52;;;;;;;11.63;6.55;;;;;;;;;;4897004;29;20039;-71
2022/05/01 11:19:18;;;;;;;12.02;7.90;;;;;;;;;;4896766;29;20038;-71
2022/05/01 11:21:47;;;;;;;8.85;5.50;;;;;;;;;;4896931;29;20033;-72
2022/05/01 11:24:15;;;;;;;8.70;5.60;;;;;;;;;;4896994;29;20028;-70
2022/05/01 11:27:01;;;;;;;7.90;4.95;;;;;;;;;;4887746;29;20503;-71
2022/05/01 11:29:27;;;;;;;9.95;5.18;;;;;;;;;;4896236;29;20052;-70
2022/05/01 11:31:53;;;;;;;8.15;4.38;;;;;;;;;;4897026;29;20035;-76
2022/05/01 11:34:19;;;;;;;8.70;3.95;;;;;;;;;;4897016;29;20075;-70
2022/05/01 11:36:58;;;;;;;6.10;4.05;;;;;;;;;;4897728;29;20164;-69
2022/05/01 11:39:56;;;;;;;7.32;4.30;;;;;;;;;;4895763;29;20151;-70
2022/05/01 11:42:25;;;;;;;10.50;6.13;;;;;;;;;;4802967;29;20467;-69
2022/05/01 11:44:52;;;;;;;5.20;3.63;;;;;;;;;;4804681;29;20045;-70
2022/05/01 11:47:19;;;;;;;6.30;4.60;;;;;;;;;;4805882;29;20031;-69
2022/05/01 11:49:46;;;;;;;12.50;5.68;;;;;;;;;;4806647;29;20057;-70
2022/05/01 11:52:16;;;;;;;7.40;4.57;;;;;;;;;;4806036;29;20077;-73
2022/05/01 11:54:47;;;;;;;6.45;4.07;;;;;;;;;;4802047;29;20114;-70
2022/05/01 12:02:47;;;;;;;10.13;5.70;;;;;;;;;;4806114;29;20477;-77
2022/05/01 12:05:13;;;;;;;7.65;5.43;;;;;;;;;;4808353;29;20459;-69
2022/05/01 12:07:39;;;;;;;7.57;4.78;;;;;;;;;;4805265;29;20490;-70
2022/05/01 12:10:12;;;;;;;17.65;5.40;;;;;;;;;;4804806;29;20062;-69
2022/05/01 12:12:38;;;;;;;10.93;5.15;;;;;;;;;;4803731;29;20034;-79
2022/05/01 12:15:06;;;;;;;6.50;4.85;;;;;;;;;;4805096;29;20092;-70
2022/05/01 12:17:39;;;;;;;6.25;4.68;;;;;;;;;;4824590;29;20034;-69
2022/05/01 12:20:05;;;;;;;12.07;5.10;;;;;;;;;;4871425;29;20043;-70
2022/05/01 12:22:37;;;;;;;8.45;4.50;;;;;;;;;;4867895;29;20086;-70
2022/05/01 12:25:04;;;;;;;9.20;5.00;;;;;;;;;;4865171;29;20061;-70
2022/05/01 12:27:30;;;;;;;10.38;6.28;;;;;;;;;;4865637;29;20403;-69
2022/05/01 12:29:56;;;;;;;6.20;3.88;;;;;;;;;;4869493;29;20029;-70
2022/05/01 12:32:24;;;;;;;5.55;3.92;;;;;;;;;;4863226;29;20022;-72
2022/05/01 12:34:50;;;;;;;6.35;4.00;;;;;;;;;;4870327;29;20082;-69
2022/05/01 12:37:17;;;;;;;7.22;3.97;;;;;;;;;;4870249;29;20029;-69
2022/05/01 12:39:44;;;;;;;8.38;7.00;;;;;;;;;;4881817;29;20061;-70
2022/05/01 12:45:22;;;;;;;9.35;6.53;;;;;;;;;;4880268;29;20047;-73
2022/05/01 12:47:52;;;;;;;9.57;7.07;;;;;;;;;;4879652;29;20033;-78
2022/05/01 12:50:21;;;;;;;18.20;9.38;;;;;;;;;;4882728;29;20037;-69
2022/05/01 12:52:50;;;;;;;9.52;4.70;;;;;;;;;;4880900;29;20033;-81
2022/05/01 12:55:17;;;;;;;8.57;5.63;;;;;;;;;;4861809;29;20488;-74
2022/05/01 12:57:49;;;;;;;12.15;5.85;;;;;;;;;;4880112;29;20040;-73
2022/05/01 13:00:34;;;;;;;7.55;5.18;;;;;;;;;;4881176;29;20089;-71
2022/05/01 13:03:19;;;;;;;9.05;5.28;;;;;;;;;;4880477;29;20040;-72
2022/05/01 13:05:57;;;;;;;8.18;5.15;;;;;;;;;;4881803;29;20040;-71
2022/05/01 13:08:24;;;;;;;8.35;5.22;;;;;;;;;;4898357;29;20123;-74
2022/05/01 13:11:09;;;;;;;6.43;4.15;;;;;;;;;;4903989;29;20044;-69
2022/05/01 13:13:50;;;;;;;6.80;3.72;;;;;;;;;;4897627;29;20029;-70
2022/05/01 13:16:17;;;;;;;6.45;4.50;;;;;;;;;;4898750;29;20032;-70
2022/05/01 13:18:46;;;;;;;9.73;3.83;;;;;;;;;;4899370;29;20081;-73
2022/05/01 13:21:12;;;;;;;6.40;4.15;;;;;;;;;;4893761;29;20029;-70
2022/05/01 13:23:42;;;;;;;7.68;4.03;;;;;;;;;;4898744;29;20029;-73
2022/05/01 13:26:08;;;;;;;11.57;4.32;;;;;;;;;;4897728;29;20403;-71
2022/05/01 13:28:35;;;;;;;5.07;3.50;;;;;;;;;;4898163;29;20029;-70
2022/05/01 13:31:01;;;;;;;5.05;2.97;;;;;;;;;;4898842;29;20063;-71
2022/05/01 13:33:28;;;;;;;5.80;3.60;;;;;;;;;;4898862;29;20024;-70
2022/05/01 13:35:56;;;;;;;6.22;3.67;;;;;;;;;;4898533;29;20030;-79
2022/05/01 13:38:22;;;;;;;7.72;4.40;;;;;;;;;;4899047;29;20032;-71
2022/05/01 13:46:18;;;;;;;5.28;3.17;;;;;;;;;;4896580;29;20455;-74
2022/05/01 13:48:44;;;;;;;6.28;3.70;;;;;;;;;;4895841;29;20111;-71
2022/05/01 13:51:10;;;;;;;5.53;2.78;;;;;;;;;;4895910;29;20045;-70
2022/05/01 13:53:36;;;;;;;5.35;3.17;;;;;;;;;;4898507;29;20021;-70
2022/05/01 13:56:02;;;;;;;6.55;3.33;;;;;;;;;;4898224;29;20037;-70
2022/05/01 13:58:28;;;;;;;10.65;3.42;;;;;;;;;;4898607;29;20021;-71
2022/05/01 14:00:54;;;;;;;9.35;3.30;;;;;;;;;;4898227;29;20031;-70
2022/05/01 14:03:20;;;;;;;7.10;3.65;;;;;;;;;;4898216;29;20398;-70
2022/05/01 14:05:46;;;;;;;6.97;3.50;;;;;;;;;;4898318;29;20383;-70
2022/05/01 14:08:12;;;;;;;8.93;3.08;;;;;;;;;;4897972;29;20104;-70
2022/05/01 14:10:38;;;;;;;5.65;2.88;;;;;;;;;;4898555;29;20044;-70
2022/05/01 14:13:07;;;;;;;5.38;3.40;;;;;;;;;;4896761;29;20084;-70
2022/05/01 14:15:37;;;;;;;5.18;3.30;;;;;;;;;;4898293;29;20063;-70
2022/05/01 14:18:03;;;;;;;5.65;2.88;;;;;;;;;;4897498;29;20034;-70
2022/05/01 14:20:31;;;;;;;4.78;2.65;;;;;;;;;;4897333;29;20040;-70
2022/05/01 14:22:57;;;;;;;4.05;2.67;;;;;;;;;;4887958;29;20029;-71
2022/05/01 14:25:23;;;;;;;3.22;2.30;;;;;;;;;;4893978;29;20033;-71
2022/05/01 14:27:50;;;;;;;6.35;2.50;;;;;;;;;;4882810;29;20096;-70
2022/05/01 14:30:16;;;;;;;6.38;2.80;;;;;;;;;;4884689;29;20056;-74
2022/05/01 14:32:42;;;;;;;5.05;2.80;;;;;;;;;;4887490;29;20032;-72
2022/05/01 14:35:09;;;;;;;13.85;8.25;;;;;;;;;;4886423;29;20037;-73
2022/05/01 14:37:39;;;;;;;4.18;3.15;;;;;;;;;;4879772;29;20021;-71
2022/05/01 14:40:07;;;;;;;7.10;2.50;;;;;;;;;;4895143;29;20502;-71
2022/05/01 14:42:35;;;;;;;4.88;2.58;;;;;;;;;;4897782;29;20029;-69
2022/05/01 14:45:05;;;;;;;10.60;2.70;;;;;;;;;;4897574;29;20092;-70
2022/05/01 14:47:34;;;;;;;3.35;2.15;;;;;;;;;;4897195;29;20099;-70
2022/05/01 14:50:03;;;;;;;3.75;2.78;;;;;;;;;;4897816;29;20045;-73
2022/05/01 14:52:30;;;;;;;6.22;2.67;;;;;;;;;;4888354;29;20420;-70
2022/05/01 14:54:58;;;;;;;9.25;2.63;;;;;;;;;;4893489;29;20052;-70
2022/05/01 14:57:26;;;;;;;6.53;2.30;;;;;;;;;;4897630;29;20029;-70
2022/05/01 15:08:13;;;;;;;3.38;2.22;;;;;;;;;;4893389;29;20403;-70
2022/05/01 15:10:41;;;;;;;3.47;2.47;;;;;;;;;;4897049;29;20040;-75
2022/05/01 15:13:10;;;;;;;6.75;2.58;;;;;;;;;;4895181;29;20056;-70
2022/05/01 15:15:44;;;;;;;7.28;3.40;;;;;;;;;;4896828;29;20487;-73
2022/05/01 15:18:14;;;;;;;6.70;5.10;;;;;;;;;;4897071;29;20487;-69
2022/05/01 15:20:48;;;;;;;4.07;2.75;;;;;;;;;;4896581;29;20425;-70
2022/05/01 15:23:18;;;;;;;5.15;2.70;;;;;;;;;;4897194;29;20028;-71
2022/05/01 15:25:49;;;;;;;7.85;3.33;;;;;;;;;;4895295;29;20543;-70
2022/05/01 15:28:15;;;;;;;4.47;2.70;;;;;;;;;;4897050;29;20021;-70
2022/05/01 15:30:50;;;;;;;7.68;2.78;;;;;;;;;;4894262;29;20040;-70